Aeroporto :
LOGIN :

Iscrizione | Disclaimer

   EN    FR    IT 

 










Sommario :    VFR   VFR Marginale   IFR   IFR Intensivo   IFR Molto Intensivo
Visibilità : 
Base nubi : 
>= 8 km
>= 3000ft
5 / 8 km
1000 / 3000 ft
1500m / 5 km
500 / 1000 ft
800 / 1500m
200 / 500 ft
< 800m
< 200 ft
Simboli :   Temporali  Nebbia  Neve Forte  Precipitazioni Forti  Vento > 20 kt
SIGMETs :   Varie  Temporali  Ghiacco  Turbolenza  Onda orograficha  Ceneri Vulcaniche






- Altitudine del aeroporto : 784 ft
- Codice IATA : TZL


LQTZ - Tuzla

ULTIMO METAR :
  • 130730Z 12003KT 080V150 0100 R09/0200N FG BKN001 00/00 Q0997

METARs OBSOLETI :
  • 130700Z VRB02KT 0300 R09/0300N FZFG OVC002 M00/M00 Q0997
  • 130630Z VRB03KT 0500 R09/0800U FZFG BKN002 M00/M00 Q0998
  • 130600Z VRB01KT 0700 R09/0900N FZFG BKN003 M00/M00 Q0998
  • 130530Z VRB02KT 0700 R09/0700D FZFG BKN004 M00/M00 Q0998
  • 130500Z VRB01KT 0900 R09/0700N FZFG BKN006 M00/M00 Q0998

TAF TAF LQTZ
Valido dal 13 a 06 ore il 14 a 06 ore UTC


130500Z 1306/1406 06005KT 3000 BR SCT015 BKN040 TX09/1314Z TNM00/1306Z
TEMPO 1306/1308 0300 FZFG BKN003
TEMPO 1316/1402 12010KT 8000 NSW SCT040
BECMG 1403/1406 29012KT



MetMap, La meteo Aeronautica in un colpo d'occhio ! - Copyright ORBIFLY Dicembre 2007 - Disclaimer

ORBIFLY MET'MAP TEAM :

Programmazione e sviluppo : Alexandra Zaïnal
Concezione : Baudouin d'Aumeries
Aiuto per la programmazione : Marc-Olivier Méhu
Supporto tecnico e logistico : Manuel Goepfert
Aiuto per la traduzione : Arnaldo La Scala

Contatto : metmap@orbifly.com




FONTI E CREDITI :

   NOAA